sensor_id;sensor_type;location;lat;lon;timestamp;P1;durP1;ratioP1;P2;durP2;ratioP2
54627;SDS011;40525;55.926;21.066;2022-12-18T00:01:20;22.25;;;9.95;;
54627;SDS011;40525;55.926;21.066;2022-12-18T00:03:50;26.77;;;9.65;;
54627;SDS011;40525;55.926;21.066;2022-12-18T00:06:18;28.90;;;10.90;;
54627;SDS011;40525;55.926;21.066;2022-12-18T00:08:46;28.42;;;10.80;;
54627;SDS011;40525;55.926;21.066;2022-12-18T00:11:14;29.60;;;11.30;;
54627;SDS011;40525;55.926;21.066;2022-12-18T00:13:45;34.92;;;11.00;;
54627;SDS011;40525;55.926;21.066;2022-12-18T00:16:13;28.17;;;10.80;;
54627;SDS011;40525;55.926;21.066;2022-12-18T00:18:45;27.40;;;10.82;;
54627;SDS011;40525;55.926;21.066;2022-12-18T00:21:12;24.85;;;9.35;;
54627;SDS011;40525;55.926;21.066;2022-12-18T00:23:41;29.20;;;9.68;;
54627;SDS011;40525;55.926;21.066;2022-12-18T00:26:13;33.38;;;10.35;;
54627;SDS011;40525;55.926;21.066;2022-12-18T00:28:44;20.70;;;9.40;;
54627;SDS011;40525;55.926;21.066;2022-12-18T00:31:13;30.45;;;9.98;;
54627;SDS011;40525;55.926;21.066;2022-12-18T00:33:42;30.88;;;9.83;;
54627;SDS011;40525;55.926;21.066;2022-12-18T00:36:14;25.80;;;9.33;;
54627;SDS011;40525;55.926;21.066;2022-12-18T00:38:43;26.35;;;10.00;;
54627;SDS011;40525;55.926;21.066;2022-12-18T00:41:11;27.73;;;9.83;;
54627;SDS011;40525;55.926;21.066;2022-12-18T00:43:41;26.73;;;9.08;;
54627;SDS011;40525;55.926;21.066;2022-12-18T00:46:08;26.73;;;9.85;;
54627;SDS011;40525;55.926;21.066;2022-12-18T00:48:34;32.28;;;10.82;;
54627;SDS011;40525;55.926;21.066;2022-12-18T00:51:02;30.40;;;11.33;;
54627;SDS011;40525;55.926;21.066;2022-12-18T00:53:28;34.08;;;11.63;;
54627;SDS011;40525;55.926;21.066;2022-12-18T00:55:55;28.38;;;9.70;;
54627;SDS011;40525;55.926;21.066;2022-12-18T00:58:21;31.33;;;10.48;;
54627;SDS011;40525;55.926;21.066;2022-12-18T01:00:48;28.65;;;9.80;;
54627;SDS011;40525;55.926;21.066;2022-12-18T01:03:14;27.62;;;10.45;;
54627;SDS011;40525;55.926;21.066;2022-12-18T01:05:42;27.32;;;10.20;;
54627;SDS011;40525;55.926;21.066;2022-12-18T01:08:10;25.85;;;9.38;;
54627;SDS011;40525;55.926;21.066;2022-12-18T01:10:39;29.82;;;10.95;;
54627;SDS011;40525;55.926;21.066;2022-12-18T01:13:07;24.02;;;9.78;;
54627;SDS011;40525;55.926;21.066;2022-12-18T01:15:34;26.25;;;10.38;;
54627;SDS011;40525;55.926;21.066;2022-12-18T01:18:01;29.05;;;9.43;;
54627;SDS011;40525;55.926;21.066;2022-12-18T01:20:27;23.80;;;8.73;;
54627;SDS011;40525;55.926;21.066;2022-12-18T01:22:54;26.68;;;9.83;;
54627;SDS011;40525;55.926;21.066;2022-12-18T01:25:20;23.42;;;8.60;;
54627;SDS011;40525;55.926;21.066;2022-12-18T01:27:49;32.50;;;9.75;;
54627;SDS011;40525;55.926;21.066;2022-12-18T01:30:15;20.95;;;6.58;;
54627;SDS011;40525;55.926;21.066;2022-12-18T01:32:42;30.95;;;9.75;;
54627;SDS011;40525;55.926;21.066;2022-12-18T01:35:08;30.00;;;10.80;;
54627;SDS011;40525;55.926;21.066;2022-12-18T01:37:35;33.98;;;10.03;;
54627;SDS011;40525;55.926;21.066;2022-12-18T01:40:02;23.15;;;7.83;;
54627;SDS011;40525;55.926;21.066;2022-12-18T01:42:29;17.42;;;7.35;;
54627;SDS011;40525;55.926;21.066;2022-12-18T01:45:00;28.47;;;8.73;;
54627;SDS011;40525;55.926;21.066;2022-12-18T01:47:35;32.08;;;8.63;;
54627;SDS011;40525;55.926;21.066;2022-12-18T01:50:16;26.07;;;7.75;;
54627;SDS011;40525;55.926;21.066;2022-12-18T01:52:53;22.35;;;7.90;;
54627;SDS011;40525;55.926;21.066;2022-12-18T01:57:57;21.87;;;6.78;;
54627;SDS011;40525;55.926;21.066;2022-12-18T02:00:25;17.73;;;6.67;;
54627;SDS011;40525;55.926;21.066;2022-12-18T02:02:54;23.18;;;7.10;;
54627;SDS011;40525;55.926;21.066;2022-12-18T02:17:29;16.07;;;6.10;;
54627;SDS011;40525;55.926;21.066;2022-12-18T02:20:02;19.52;;;6.65;;
54627;SDS011;40525;55.926;21.066;2022-12-18T02:22:43;17.45;;;7.08;;
54627;SDS011;40525;55.926;21.066;2022-12-18T02:28:20;19.90;;;6.80;;
54627;SDS011;40525;55.926;21.066;2022-12-18T02:30:51;18.73;;;6.60;;
54627;SDS011;40525;55.926;21.066;2022-12-18T02:33:21;15.93;;;6.08;;
54627;SDS011;40525;55.926;21.066;2022-12-18T02:35:50;14.60;;;6.20;;
54627;SDS011;40525;55.926;21.066;2022-12-18T02:38:20;15.00;;;6.90;;
54627;SDS011;40525;55.926;21.066;2022-12-18T02:40:48;16.52;;;6.17;;
54627;SDS011;40525;55.926;21.066;2022-12-18T02:43:17;15.72;;;6.08;;
54627;SDS011;40525;55.926;21.066;2022-12-18T02:45:52;17.65;;;6.50;;
54627;SDS011;40525;55.926;21.066;2022-12-18T02:48:23;20.60;;;6.55;;
54627;SDS011;40525;55.926;21.066;2022-12-18T02:50:59;18.37;;;7.72;;
54627;SDS011;40525;55.926;21.066;2022-12-18T02:53:53;16.90;;;6.08;;
54627;SDS011;40525;55.926;21.066;2022-12-18T02:56:28;22.32;;;6.42;;
54627;SDS011;40525;55.926;21.066;2022-12-18T02:59:13;18.37;;;6.25;;
54627;SDS011;40525;55.926;21.066;2022-12-18T03:02:01;16.57;;;5.22;;
54627;SDS011;40525;55.926;21.066;2022-12-18T03:04:41;11.03;;;4.55;;
54627;SDS011;40525;55.926;21.066;2022-12-18T03:07:26;16.65;;;6.12;;
54627;SDS011;40525;55.926;21.066;2022-12-18T03:09:55;13.85;;;5.85;;
54627;SDS011;40525;55.926;21.066;2022-12-18T03:12:30;12.45;;;5.95;;
54627;SDS011;40525;55.926;21.066;2022-12-18T03:15:00;14.10;;;5.55;;
54627;SDS011;40525;55.926;21.066;2022-12-18T03:17:41;16.93;;;4.95;;
54627;SDS011;40525;55.926;21.066;2022-12-18T03:20:13;14.28;;;5.22;;
54627;SDS011;40525;55.926;21.066;2022-12-18T03:22:44;13.65;;;5.17;;
54627;SDS011;40525;55.926;21.066;2022-12-18T03:25:14;16.52;;;5.55;;
54627;SDS011;40525;55.926;21.066;2022-12-18T03:27:46;16.90;;;5.78;;
54627;SDS011;40525;55.926;21.066;2022-12-18T03:30:15;14.93;;;5.20;;
54627;SDS011;40525;55.926;21.066;2022-12-18T03:35:20;14.78;;;5.28;;
54627;SDS011;40525;55.926;21.066;2022-12-18T03:37:50;15.15;;;5.65;;
54627;SDS011;40525;55.926;21.066;2022-12-18T03:40:17;12.07;;;5.12;;
54627;SDS011;40525;55.926;21.066;2022-12-18T03:42:49;13.90;;;5.25;;
54627;SDS011;40525;55.926;21.066;2022-12-18T03:45:27;20.37;;;5.87;;
54627;SDS011;40525;55.926;21.066;2022-12-18T03:48:06;14.40;;;5.12;;
54627;SDS011;40525;55.926;21.066;2022-12-18T03:51:05;15.03;;;5.35;;
54627;SDS011;40525;55.926;21.066;2022-12-18T03:56:15;15.13;;;5.97;;
54627;SDS011;40525;55.926;21.066;2022-12-18T03:58:44;14.18;;;5.85;;
54627;SDS011;40525;55.926;21.066;2022-12-18T04:01:18;11.73;;;4.83;;
54627;SDS011;40525;55.926;21.066;2022-12-18T04:03:50;11.53;;;4.62;;
54627;SDS011;40525;55.926;21.066;2022-12-18T04:06:18;14.68;;;5.40;;
54627;SDS011;40525;55.926;21.066;2022-12-18T04:08:45;14.00;;;4.90;;
54627;SDS011;40525;55.926;21.066;2022-12-18T04:11:15;13.85;;;5.45;;
54627;SDS011;40525;55.926;21.066;2022-12-18T04:13:43;11.10;;;3.95;;
54627;SDS011;40525;55.926;21.066;2022-12-18T04:16:11;11.28;;;5.40;;
54627;SDS011;40525;55.926;21.066;2022-12-18T04:18:40;15.03;;;4.85;;
54627;SDS011;40525;55.926;21.066;2022-12-18T04:21:07;13.75;;;4.70;;
54627;SDS011;40525;55.926;21.066;2022-12-18T04:23:34;14.45;;;5.00;;
54627;SDS011;40525;55.926;21.066;2022-12-18T04:26:01;11.50;;;4.42;;
54627;SDS011;40525;55.926;21.066;2022-12-18T04:28:35;12.20;;;5.25;;
54627;SDS011;40525;55.926;21.066;2022-12-18T04:31:02;13.35;;;4.90;;
54627;SDS011;40525;55.926;21.066;2022-12-18T04:33:28;16.32;;;5.33;;
54627;SDS011;40525;55.926;21.066;2022-12-18T04:35:55;11.33;;;5.15;;
54627;SDS011;40525;55.926;21.066;2022-12-18T04:38:22;14.20;;;5.53;;
54627;SDS011;40525;55.926;21.066;2022-12-18T04:40:51;15.08;;;4.92;;
54627;SDS011;40525;55.926;21.066;2022-12-18T04:43:19;12.00;;;4.67;;
54627;SDS011;40525;55.926;21.066;2022-12-18T04:45:46;15.08;;;5.97;;
54627;SDS011;40525;55.926;21.066;2022-12-18T04:48:12;11.95;;;4.40;;
54627;SDS011;40525;55.926;21.066;2022-12-18T04:50:39;14.95;;;5.75;;
54627;SDS011;40525;55.926;21.066;2022-12-18T04:53:06;13.32;;;5.50;;
54627;SDS011;40525;55.926;21.066;2022-12-18T04:55:32;13.45;;;5.47;;
54627;SDS011;40525;55.926;21.066;2022-12-18T04:57:59;13.83;;;6.33;;
54627;SDS011;40525;55.926;21.066;2022-12-18T05:00:25;12.55;;;5.60;;
54627;SDS011;40525;55.926;21.066;2022-12-18T05:02:52;18.10;;;6.17;;
54627;SDS011;40525;55.926;21.066;2022-12-18T05:05:18;15.23;;;6.00;;
54627;SDS011;40525;55.926;21.066;2022-12-18T05:07:45;12.23;;;5.40;;
54627;SDS011;40525;55.926;21.066;2022-12-18T05:10:11;18.10;;;6.47;;
54627;SDS011;40525;55.926;21.066;2022-12-18T05:12:38;13.70;;;5.50;;
54627;SDS011;40525;55.926;21.066;2022-12-18T05:15:07;14.28;;;6.42;;
54627;SDS011;40525;55.926;21.066;2022-12-18T05:17:36;19.80;;;5.83;;
54627;SDS011;40525;55.926;21.066;2022-12-18T05:20:03;14.40;;;5.17;;
54627;SDS011;40525;55.926;21.066;2022-12-18T05:22:30;14.70;;;5.42;;
54627;SDS011;40525;55.926;21.066;2022-12-18T05:24:56;17.85;;;6.10;;
54627;SDS011;40525;55.926;21.066;2022-12-18T05:27:23;18.55;;;5.97;;
54627;SDS011;40525;55.926;21.066;2022-12-18T05:29:49;18.00;;;5.70;;
54627;SDS011;40525;55.926;21.066;2022-12-18T05:32:16;20.25;;;6.72;;
54627;SDS011;40525;55.926;21.066;2022-12-18T05:34:43;17.10;;;5.55;;
54627;SDS011;40525;55.926;21.066;2022-12-18T05:37:09;17.98;;;6.83;;
54627;SDS011;40525;55.926;21.066;2022-12-18T05:39:36;14.50;;;5.47;;
54627;SDS011;40525;55.926;21.066;2022-12-18T05:42:02;16.35;;;6.03;;
54627;SDS011;40525;55.926;21.066;2022-12-18T05:44:29;15.43;;;5.95;;
54627;SDS011;40525;55.926;21.066;2022-12-18T05:46:55;16.07;;;6.00;;
54627;SDS011;40525;55.926;21.066;2022-12-18T05:49:22;15.32;;;6.03;;
54627;SDS011;40525;55.926;21.066;2022-12-18T05:51:48;12.70;;;4.75;;
54627;SDS011;40525;55.926;21.066;2022-12-18T05:54:15;14.98;;;4.78;;
54627;SDS011;40525;55.926;21.066;2022-12-18T05:56:42;14.83;;;5.42;;
54627;SDS011;40525;55.926;21.066;2022-12-18T05:59:08;16.95;;;6.47;;
54627;SDS011;40525;55.926;21.066;2022-12-18T06:01:35;13.60;;;5.50;;
54627;SDS011;40525;55.926;21.066;2022-12-18T06:04:01;17.25;;;6.45;;
54627;SDS011;40525;55.926;21.066;2022-12-18T06:06:28;11.68;;;5.67;;
54627;SDS011;40525;55.926;21.066;2022-12-18T06:08:55;14.23;;;5.97;;
54627;SDS011;40525;55.926;21.066;2022-12-18T06:11:23;12.53;;;5.85;;
54627;SDS011;40525;55.926;21.066;2022-12-18T06:13:52;14.95;;;5.55;;
54627;SDS011;40525;55.926;21.066;2022-12-18T06:16:20;13.88;;;5.12;;
54627;SDS011;40525;55.926;21.066;2022-12-18T06:18:47;12.18;;;5.15;;
54627;SDS011;40525;55.926;21.066;2022-12-18T06:21:14;16.87;;;6.03;;
54627;SDS011;40525;55.926;21.066;2022-12-18T06:23:40;15.15;;;4.70;;
54627;SDS011;40525;55.926;21.066;2022-12-18T06:26:08;18.35;;;6.40;;
54627;SDS011;40525;55.926;21.066;2022-12-18T06:28:37;13.75;;;5.42;;
54627;SDS011;40525;55.926;21.066;2022-12-18T06:31:04;17.27;;;6.10;;
54627;SDS011;40525;55.926;21.066;2022-12-18T06:33:32;14.45;;;5.72;;
54627;SDS011;40525;55.926;21.066;2022-12-18T06:36:00;18.73;;;6.08;;
54627;SDS011;40525;55.926;21.066;2022-12-18T06:38:33;18.67;;;7.30;;
54627;SDS011;40525;55.926;21.066;2022-12-18T06:41:00;17.30;;;6.20;;
54627;SDS011;40525;55.926;21.066;2022-12-18T06:43:35;16.77;;;6.72;;
54627;SDS011;40525;55.926;21.066;2022-12-18T06:46:03;12.68;;;5.80;;
54627;SDS011;40525;55.926;21.066;2022-12-18T06:48:31;13.85;;;5.62;;
54627;SDS011;40525;55.926;21.066;2022-12-18T06:50:59;14.05;;;5.30;;
54627;SDS011;40525;55.926;21.066;2022-12-18T06:53:26;13.78;;;5.40;;
54627;SDS011;40525;55.926;21.066;2022-12-18T06:56:05;15.50;;;5.40;;
54627;SDS011;40525;55.926;21.066;2022-12-18T06:58:29;13.20;;;4.90;;
54627;SDS011;40525;55.926;21.066;2022-12-18T07:01:00;17.67;;;6.10;;
54627;SDS011;40525;55.926;21.066;2022-12-18T07:03:27;17.32;;;5.47;;
54627;SDS011;40525;55.926;21.066;2022-12-18T07:05:54;13.43;;;6.00;;
54627;SDS011;40525;55.926;21.066;2022-12-18T07:08:21;12.98;;;5.80;;
54627;SDS011;40525;55.926;21.066;2022-12-18T07:10:48;17.35;;;6.12;;
54627;SDS011;40525;55.926;21.066;2022-12-18T07:13:17;18.17;;;6.83;;
54627;SDS011;40525;55.926;21.066;2022-12-18T07:15:43;18.87;;;6.92;;
54627;SDS011;40525;55.926;21.066;2022-12-18T07:18:10;16.45;;;7.50;;
54627;SDS011;40525;55.926;21.066;2022-12-18T07:20:37;14.68;;;6.45;;
54627;SDS011;40525;55.926;21.066;2022-12-18T07:23:04;15.13;;;6.83;;
54627;SDS011;40525;55.926;21.066;2022-12-18T07:25:35;19.02;;;6.70;;
54627;SDS011;40525;55.926;21.066;2022-12-18T07:28:02;16.67;;;6.00;;
54627;SDS011;40525;55.926;21.066;2022-12-18T07:30:30;18.02;;;6.87;;
54627;SDS011;40525;55.926;21.066;2022-12-18T07:32:56;18.70;;;6.25;;
54627;SDS011;40525;55.926;21.066;2022-12-18T07:35:23;16.73;;;5.40;;
54627;SDS011;40525;55.926;21.066;2022-12-18T07:37:49;16.45;;;6.25;;
54627;SDS011;40525;55.926;21.066;2022-12-18T07:40:16;15.28;;;6.25;;
54627;SDS011;40525;55.926;21.066;2022-12-18T07:42:42;16.55;;;6.65;;
54627;SDS011;40525;55.926;21.066;2022-12-18T07:45:09;31.02;;;10.60;;
54627;SDS011;40525;55.926;21.066;2022-12-18T07:47:36;21.02;;;7.67;;
54627;SDS011;40525;55.926;21.066;2022-12-18T07:50:03;62.75;;;19.60;;
54627;SDS011;40525;55.926;21.066;2022-12-18T07:52:31;32.78;;;10.98;;
54627;SDS011;40525;55.926;21.066;2022-12-18T07:54:58;20.82;;;8.08;;
54627;SDS011;40525;55.926;21.066;2022-12-18T07:57:25;18.80;;;7.83;;
54627;SDS011;40525;55.926;21.066;2022-12-18T07:59:51;18.12;;;6.85;;
54627;SDS011;40525;55.926;21.066;2022-12-18T08:02:18;18.52;;;7.53;;
54627;SDS011;40525;55.926;21.066;2022-12-18T08:04:45;35.30;;;10.68;;
54627;SDS011;40525;55.926;21.066;2022-12-18T08:07:11;22.87;;;7.30;;
54627;SDS011;40525;55.926;21.066;2022-12-18T08:09:38;21.48;;;8.58;;
54627;SDS011;40525;55.926;21.066;2022-12-18T08:12:05;21.77;;;7.58;;
54627;SDS011;40525;55.926;21.066;2022-12-18T08:14:32;17.32;;;7.37;;
54627;SDS011;40525;55.926;21.066;2022-12-18T08:16:58;17.30;;;6.78;;
54627;SDS011;40525;55.926;21.066;2022-12-18T08:19:25;19.50;;;7.25;;
54627;SDS011;40525;55.926;21.066;2022-12-18T08:21:51;22.35;;;7.33;;
54627;SDS011;40525;55.926;21.066;2022-12-18T08:24:18;20.57;;;7.85;;
54627;SDS011;40525;55.926;21.066;2022-12-18T08:26:44;17.75;;;6.90;;
54627;SDS011;40525;55.926;21.066;2022-12-18T08:29:12;19.60;;;6.65;;
54627;SDS011;40525;55.926;21.066;2022-12-18T08:31:38;14.07;;;6.40;;
54627;SDS011;40525;55.926;21.066;2022-12-18T08:34:05;19.02;;;7.42;;
54627;SDS011;40525;55.926;21.066;2022-12-18T08:36:31;23.07;;;8.00;;
54627;SDS011;40525;55.926;21.066;2022-12-18T08:38:58;20.30;;;7.35;;
54627;SDS011;40525;55.926;21.066;2022-12-18T08:41:25;22.50;;;8.33;;
54627;SDS011;40525;55.926;21.066;2022-12-18T08:43:52;32.38;;;13.32;;
54627;SDS011;40525;55.926;21.066;2022-12-18T08:46:38;25.88;;;9.90;;
54627;SDS011;40525;55.926;21.066;2022-12-18T08:49:07;21.95;;;7.78;;
54627;SDS011;40525;55.926;21.066;2022-12-18T08:51:35;19.00;;;7.03;;
54627;SDS011;40525;55.926;21.066;2022-12-18T08:54:04;18.23;;;6.90;;
54627;SDS011;40525;55.926;21.066;2022-12-18T08:56:31;19.10;;;8.08;;
54627;SDS011;40525;55.926;21.066;2022-12-18T08:58:58;18.67;;;7.70;;
54627;SDS011;40525;55.926;21.066;2022-12-18T09:01:25;22.82;;;8.18;;
54627;SDS011;40525;55.926;21.066;2022-12-18T09:03:52;23.15;;;9.35;;
54627;SDS011;40525;55.926;21.066;2022-12-18T09:06:20;27.80;;;10.85;;
54627;SDS011;40525;55.926;21.066;2022-12-18T09:08:49;25.97;;;11.28;;
54627;SDS011;40525;55.926;21.066;2022-12-18T09:11:24;23.90;;;9.13;;
54627;SDS011;40525;55.926;21.066;2022-12-18T09:13:50;23.35;;;10.30;;
54627;SDS011;40525;55.926;21.066;2022-12-18T09:16:18;20.05;;;9.43;;
54627;SDS011;40525;55.926;21.066;2022-12-18T09:18:45;20.75;;;8.38;;
54627;SDS011;40525;55.926;21.066;2022-12-18T09:21:19;25.88;;;11.45;;
54627;SDS011;40525;55.926;21.066;2022-12-18T09:23:50;24.32;;;9.00;;
54627;SDS011;40525;55.926;21.066;2022-12-18T09:26:18;21.77;;;7.85;;
54627;SDS011;40525;55.926;21.066;2022-12-18T09:28:45;24.87;;;9.75;;
54627;SDS011;40525;55.926;21.066;2022-12-18T09:31:13;25.35;;;10.63;;
54627;SDS011;40525;55.926;21.066;2022-12-18T09:33:40;16.87;;;8.43;;
54627;SDS011;40525;55.926;21.066;2022-12-18T09:36:08;22.80;;;10.63;;
54627;SDS011;40525;55.926;21.066;2022-12-18T09:38:38;21.90;;;10.15;;
54627;SDS011;40525;55.926;21.066;2022-12-18T09:41:17;29.75;;;15.35;;
54627;SDS011;40525;55.926;21.066;2022-12-18T09:43:59;30.02;;;13.80;;
54627;SDS011;40525;55.926;21.066;2022-12-18T09:46:31;26.20;;;9.88;;
54627;SDS011;40525;55.926;21.066;2022-12-18T09:49:05;14.30;;;6.72;;
54627;SDS011;40525;55.926;21.066;2022-12-18T09:51:37;21.73;;;8.28;;
54627;SDS011;40525;55.926;21.066;2022-12-18T09:54:15;17.95;;;8.03;;
54627;SDS011;40525;55.926;21.066;2022-12-18T09:56:51;16.15;;;7.10;;
54627;SDS011;40525;55.926;21.066;2022-12-18T10:01:52;26.87;;;10.45;;
54627;SDS011;40525;55.926;21.066;2022-12-18T10:04:19;40.88;;;15.03;;
54627;SDS011;40525;55.926;21.066;2022-12-18T10:06:57;13.60;;;5.75;;
54627;SDS011;40525;55.926;21.066;2022-12-18T10:12:30;5.62;;;2.33;;
54627;SDS011;40525;55.926;21.066;2022-12-18T10:15:48;7.42;;;2.87;;
54627;SDS011;40525;55.926;21.066;2022-12-18T10:23:21;14.53;;;6.12;;
54627;SDS011;40525;55.926;21.066;2022-12-18T10:26:06;7.78;;;3.65;;
54627;SDS011;40525;55.926;21.066;2022-12-18T10:28:36;5.75;;;2.20;;
54627;SDS011;40525;55.926;21.066;2022-12-18T10:31:20;4.87;;;2.50;;
54627;SDS011;40525;55.926;21.066;2022-12-18T10:33:46;4.83;;;1.80;;
54627;SDS011;40525;55.926;21.066;2022-12-18T10:36:13;1.20;;;0.80;;
54627;SDS011;40525;55.926;21.066;2022-12-18T10:38:40;6.08;;;1.90;;
54627;SDS011;40525;55.926;21.066;2022-12-18T10:41:22;7.35;;;1.80;;
54627;SDS011;40525;55.926;21.066;2022-12-18T10:43:51;8.65;;;2.87;;
54627;SDS011;40525;55.926;21.066;2022-12-18T10:46:48;7.83;;;3.83;;
54627;SDS011;40525;55.926;21.066;2022-12-18T10:49:27;5.33;;;2.02;;
54627;SDS011;40525;55.926;21.066;2022-12-18T10:52:11;9.60;;;2.95;;
54627;SDS011;40525;55.926;21.066;2022-12-18T11:00:18;21.90;;;9.00;;
54627;SDS011;40525;55.926;21.066;2022-12-18T11:02:51;16.50;;;7.53;;
54627;SDS011;40525;55.926;21.066;2022-12-18T11:05:25;11.75;;;5.03;;
54627;SDS011;40525;55.926;21.066;2022-12-18T11:07:58;10.08;;;4.25;;
54627;SDS011;40525;55.926;21.066;2022-12-18T11:10:28;13.75;;;5.72;;
54627;SDS011;40525;55.926;21.066;2022-12-18T11:13:21;16.10;;;5.33;;
54627;SDS011;40525;55.926;21.066;2022-12-18T11:15:51;14.05;;;5.30;;
54627;SDS011;40525;55.926;21.066;2022-12-18T11:18:20;13.10;;;4.85;;
54627;SDS011;40525;55.926;21.066;2022-12-18T11:20:54;16.55;;;5.87;;
54627;SDS011;40525;55.926;21.066;2022-12-18T11:23:28;16.15;;;5.50;;
54627;SDS011;40525;55.926;21.066;2022-12-18T11:25:55;16.23;;;5.90;;
54627;SDS011;40525;55.926;21.066;2022-12-18T11:28:33;15.10;;;4.78;;
54627;SDS011;40525;55.926;21.066;2022-12-18T11:31:23;17.15;;;6.25;;
54627;SDS011;40525;55.926;21.066;2022-12-18T11:36:47;17.25;;;6.22;;
54627;SDS011;40525;55.926;21.066;2022-12-18T11:39:20;25.32;;;8.20;;
54627;SDS011;40525;55.926;21.066;2022-12-18T11:42:09;11.28;;;4.28;;
54627;SDS011;40525;55.926;21.066;2022-12-18T11:50:29;22.98;;;8.78;;
54627;SDS011;40525;55.926;21.066;2022-12-18T11:53:12;25.48;;;7.33;;
54627;SDS011;40525;55.926;21.066;2022-12-18T11:58:31;14.60;;;4.97;;
54627;SDS011;40525;55.926;21.066;2022-12-18T12:01:18;9.98;;;3.45;;
54627;SDS011;40525;55.926;21.066;2022-12-18T12:20:59;18.48;;;7.25;;
54627;SDS011;40525;55.926;21.066;2022-12-18T12:24:00;21.93;;;8.55;;
54627;SDS011;40525;55.926;21.066;2022-12-18T12:26:52;19.35;;;5.33;;
54627;SDS011;40525;55.926;21.066;2022-12-18T12:38:14;18.27;;;5.62;;
54627;SDS011;40525;55.926;21.066;2022-12-18T12:40:47;25.65;;;7.65;;
54627;SDS011;40525;55.926;21.066;2022-12-18T12:43:38;18.98;;;6.58;;
54627;SDS011;40525;55.926;21.066;2022-12-18T12:46:09;12.88;;;4.03;;
54627;SDS011;40525;55.926;21.066;2022-12-18T12:48:46;25.90;;;7.75;;
54627;SDS011;40525;55.926;21.066;2022-12-18T12:51:16;16.17;;;5.17;;
54627;SDS011;40525;55.926;21.066;2022-12-18T12:53:46;14.87;;;4.30;;
54627;SDS011;40525;55.926;21.066;2022-12-18T12:56:14;15.18;;;5.83;;
54627;SDS011;40525;55.926;21.066;2022-12-18T13:01:32;9.68;;;3.47;;
54627;SDS011;40525;55.926;21.066;2022-12-18T13:04:23;15.48;;;5.08;;
54627;SDS011;40525;55.926;21.066;2022-12-18T13:12:52;5.80;;;2.60;;
54627;SDS011;40525;55.926;21.066;2022-12-18T13:15:30;6.00;;;3.15;;
54627;SDS011;40525;55.926;21.066;2022-12-18T13:28:52;2.85;;;0.80;;
54627;SDS011;40525;55.926;21.066;2022-12-18T13:34:18;3.27;;;1.05;;
54627;SDS011;40525;55.926;21.066;2022-12-18T13:36:50;5.70;;;1.72;;
54627;SDS011;40525;55.926;21.066;2022-12-18T13:41:54;5.95;;;2.52;;
54627;SDS011;40525;55.926;21.066;2022-12-18T13:44:35;6.70;;;1.75;;
54627;SDS011;40525;55.926;21.066;2022-12-18T13:47:50;3.65;;;1.15;;
54627;SDS011;40525;55.926;21.066;2022-12-18T13:49:59;3.70;;;1.65;;
54627;SDS011;40525;55.926;21.066;2022-12-18T13:52:37;3.22;;;1.57;;
54627;SDS011;40525;55.926;21.066;2022-12-18T13:55:04;4.78;;;2.20;;
54627;SDS011;40525;55.926;21.066;2022-12-18T13:57:36;3.70;;;1.90;;
54627;SDS011;40525;55.926;21.066;2022-12-18T14:00:23;3.60;;;1.40;;
54627;SDS011;40525;55.926;21.066;2022-12-18T14:02:54;2.70;;;1.22;;
54627;SDS011;40525;55.926;21.066;2022-12-18T14:05:31;1.65;;;0.82;;
54627;SDS011;40525;55.926;21.066;2022-12-18T14:08:05;1.60;;;0.55;;
54627;SDS011;40525;55.926;21.066;2022-12-18T14:10:34;4.12;;;1.00;;
54627;SDS011;40525;55.926;21.066;2022-12-18T14:13:05;2.95;;;0.85;;
54627;SDS011;40525;55.926;21.066;2022-12-18T14:15:36;3.08;;;1.12;;
54627;SDS011;40525;55.926;21.066;2022-12-18T14:21:18;2.90;;;0.72;;
54627;SDS011;40525;55.926;21.066;2022-12-18T14:26:40;2.62;;;0.90;;
54627;SDS011;40525;55.926;21.066;2022-12-18T14:32:15;2.65;;;0.90;;
54627;SDS011;40525;55.926;21.066;2022-12-18T14:34:45;2.15;;;0.88;;
54627;SDS011;40525;55.926;21.066;2022-12-18T14:37:25;1.80;;;0.82;;
54627;SDS011;40525;55.926;21.066;2022-12-18T14:40:03;3.35;;;1.00;;
54627;SDS011;40525;55.926;21.066;2022-12-18T14:42:29;3.47;;;0.88;;
54627;SDS011;40525;55.926;21.066;2022-12-18T14:50:39;2.42;;;1.40;;
54627;SDS011;40525;55.926;21.066;2022-12-18T14:53:05;2.52;;;0.90;;
54627;SDS011;40525;55.926;21.066;2022-12-18T14:55:34;2.60;;;1.20;;
54627;SDS011;40525;55.926;21.066;2022-12-18T14:58:00;4.62;;;1.20;;
54627;SDS011;40525;55.926;21.066;2022-12-18T15:00:27;2.92;;;1.15;;
54627;SDS011;40525;55.926;21.066;2022-12-18T15:02:55;1.90;;;0.85;;
54627;SDS011;40525;55.926;21.066;2022-12-18T15:05:30;1.85;;;0.82;;
54627;SDS011;40525;55.926;21.066;2022-12-18T15:07:58;2.62;;;0.90;;
54627;SDS011;40525;55.926;21.066;2022-12-18T15:10:28;4.45;;;0.95;;
54627;SDS011;40525;55.926;21.066;2022-12-18T15:20:40;5.67;;;2.47;;
54627;SDS011;40525;55.926;21.066;2022-12-18T15:23:22;5.45;;;2.30;;
54627;SDS011;40525;55.926;21.066;2022-12-18T15:25:56;6.97;;;3.00;;
54627;SDS011;40525;55.926;21.066;2022-12-18T15:28:34;7.35;;;2.80;;
54627;SDS011;40525;55.926;21.066;2022-12-18T15:33:45;6.85;;;1.72;;
54627;SDS011;40525;55.926;21.066;2022-12-18T15:36:22;4.40;;;1.65;;
54627;SDS011;40525;55.926;21.066;2022-12-18T15:38:50;11.38;;;3.45;;
54627;SDS011;40525;55.926;21.066;2022-12-18T15:41:20;14.65;;;3.90;;
54627;SDS011;40525;55.926;21.066;2022-12-18T15:43:48;8.68;;;2.72;;
54627;SDS011;40525;55.926;21.066;2022-12-18T15:46:25;12.68;;;3.20;;
54627;SDS011;40525;55.926;21.066;2022-12-18T15:48:50;4.00;;;1.72;;
54627;SDS011;40525;55.926;21.066;2022-12-18T15:51:20;4.62;;;1.57;;
54627;SDS011;40525;55.926;21.066;2022-12-18T15:53:58;4.47;;;1.85;;
54627;SDS011;40525;55.926;21.066;2022-12-18T15:56:29;4.60;;;2.10;;
54627;SDS011;40525;55.926;21.066;2022-12-18T15:59:16;9.08;;;3.25;;
54627;SDS011;40525;55.926;21.066;2022-12-18T16:01:45;7.12;;;3.10;;
54627;SDS011;40525;55.926;21.066;2022-12-18T16:04:19;7.53;;;2.22;;
54627;SDS011;40525;55.926;21.066;2022-12-18T16:06:48;4.22;;;1.60;;
54627;SDS011;40525;55.926;21.066;2022-12-18T16:09:15;5.35;;;2.25;;
54627;SDS011;40525;55.926;21.066;2022-12-18T16:11:41;10.60;;;4.22;;
54627;SDS011;40525;55.926;21.066;2022-12-18T16:16:53;10.60;;;3.77;;
54627;SDS011;40525;55.926;21.066;2022-12-18T16:19:22;6.10;;;2.10;;
54627;SDS011;40525;55.926;21.066;2022-12-18T16:21:51;4.75;;;1.70;;
54627;SDS011;40525;55.926;21.066;2022-12-18T16:24:21;6.72;;;3.17;;
54627;SDS011;40525;55.926;21.066;2022-12-18T16:26:53;5.53;;;1.40;;
54627;SDS011;40525;55.926;21.066;2022-12-18T16:29:21;2.60;;;1.10;;
54627;SDS011;40525;55.926;21.066;2022-12-18T16:31:50;5.70;;;2.25;;
54627;SDS011;40525;55.926;21.066;2022-12-18T16:34:18;3.42;;;1.20;;
54627;SDS011;40525;55.926;21.066;2022-12-18T16:36:52;3.20;;;1.42;;
54627;SDS011;40525;55.926;21.066;2022-12-18T16:39:16;2.20;;;1.17;;
54627;SDS011;40525;55.926;21.066;2022-12-18T16:41:43;3.42;;;1.45;;
54627;SDS011;40525;55.926;21.066;2022-12-18T16:44:10;3.17;;;1.05;;
54627;SDS011;40525;55.926;21.066;2022-12-18T16:46:37;3.42;;;1.50;;
54627;SDS011;40525;55.926;21.066;2022-12-18T16:49:04;3.35;;;1.60;;
54627;SDS011;40525;55.926;21.066;2022-12-18T16:51:31;4.90;;;1.65;;
54627;SDS011;40525;55.926;21.066;2022-12-18T16:53:59;3.98;;;1.27;;